Aviation Digital Data Service (ADDS)

Output produced by METARs form (0312 UTC 23 April 2021)
found at http://aviationweather.gov/metar/data/
 
METAR text: EDDK 230250Z VRB02KT CAVOK 01/M01 Q1027 NOSIG
Conditions at: EDDK (KOELN/BONN , DE) observed 0250 UTC 23 April 2021
Temperature: 1.0°C (34°F)
Dewpoint: -1.0°C (30°F) [RH = 86%]
Pressure (altimeter): 30.32 inches Hg (1027.0 mb)
Winds: variable direction winds at 2 MPH (2 knots; 1.0 m/s)
Visibility: 6 or more miles (10+ km)
Ceiling: ceiling and visibility are OK
Clouds: unknown
Weather: no significant weather observed at this time

METAR text: EDDK 230220Z 05003KT 360V070 CAVOK 01/M00 Q1027 NOSIG
Conditions at: EDDK (KOELN/BONN , DE) observed 0220 UTC 23 April 2021
Temperature: 1.0°C (34°F)
Dewpoint: 0.0°C (32°F) [RH = 93%]
Pressure (altimeter): 30.32 inches Hg (1027.0 mb)
Winds: from the NE (50 degrees) at 3 MPH (3 knots; 1.5 m/s)
Visibility: 6 or more miles (10+ km)
Ceiling: ceiling and visibility are OK
Clouds: unknown
Weather: no significant weather observed at this time

Forecast for: EDDK (KOELN/BONN , DE)
Text: TAF EDDK 222300Z 2300/2406 VRB03KT CAVOK
Forecast period: 0000 to 0800 UTC 23 April 2021
Forecast type: FROM: standard forecast or significant change
Winds: variable direction winds at 3 MPH (3 knots; 1.5 m/s)
Visibility: 6 or more miles (10+ km)
Ceiling: unknown
Clouds: missing
Weather: NSW  (no significant weather)
Text: BECMG 2308/2310 34007KT
Forecast period: 0800 to 1800 UTC 23 April 2021
Forecast type: BECOMING: Conditions expected to become as follows by 1000 UTC 23 April 2021
Winds: from the NNW (340 degrees) at 8 MPH (7 knots; 3.6 m/s)
Visibility: 6 or more miles (10+ km)
Ceiling: unknown
Clouds: missing
Weather: NSW  (no significant weather)
Text: BECMG 2318/2320 VRB03KT
Forecast period: 1800 UTC 23 April 2021 to 0600 UTC 24 April 2021
Forecast type: BECOMING: Conditions expected to become as follows by 2000 UTC 23 April 2021
Winds: variable direction winds at 3 MPH (3 knots; 1.5 m/s)
Visibility: 6 or more miles (10+ km)
Ceiling: unknown
Clouds: missing
Weather: NSW  (no significant weather)